sensor_id;sensor_type;location;lat;lon;timestamp;P1;durP1;ratioP1;P2;durP2;ratioP2
3911;SDS011;1971;51.778;10.330;2023-09-19T00:05:33;0.70;;;0.70;;
3911;SDS011;1971;51.778;10.330;2023-09-19T00:12:15;0.80;;;0.80;;
3911;SDS011;1971;51.778;10.330;2023-09-19T07:03:25;2.80;;;2.60;;
3911;SDS011;1971;51.778;10.330;2023-09-19T07:05:56;3.83;;;3.10;;
3911;SDS011;1971;51.778;10.330;2023-09-19T07:08:26;4.90;;;2.53;;
3911;SDS011;1971;51.778;10.330;2023-09-19T07:10:56;4.33;;;2.77;;
3911;SDS011;1971;51.778;10.330;2023-09-19T07:13:26;3.10;;;2.40;;
3911;SDS011;1971;51.778;10.330;2023-09-19T07:15:57;6.47;;;3.40;;
3911;SDS011;1971;51.778;10.330;2023-09-19T07:18:30;3.50;;;2.57;;
3911;SDS011;1971;51.778;10.330;2023-09-19T07:21:01;5.13;;;3.60;;
3911;SDS011;1971;51.778;10.330;2023-09-19T07:23:31;5.13;;;3.33;;
3911;SDS011;1971;51.778;10.330;2023-09-19T07:26:02;4.13;;;3.27;;
3911;SDS011;1971;51.778;10.330;2023-09-19T07:28:33;4.43;;;3.00;;
3911;SDS011;1971;51.778;10.330;2023-09-19T07:31:03;6.07;;;3.10;;
3911;SDS011;1971;51.778;10.330;2023-09-19T07:33:39;3.27;;;2.63;;
3911;SDS011;1971;51.778;10.330;2023-09-19T07:36:10;4.40;;;2.73;;
3911;SDS011;1971;51.778;10.330;2023-09-19T07:38:41;3.00;;;2.57;;
3911;SDS011;1971;51.778;10.330;2023-09-19T07:41:11;6.43;;;2.60;;
3911;SDS011;1971;51.778;10.330;2023-09-19T07:43:42;4.73;;;2.70;;
3911;SDS011;1971;51.778;10.330;2023-09-19T07:46:12;2.63;;;2.33;;
3911;SDS011;1971;51.778;10.330;2023-09-19T07:48:45;4.70;;;2.60;;
3911;SDS011;1971;51.778;10.330;2023-09-19T07:51:15;7.00;;;3.57;;
3911;SDS011;1971;51.778;10.330;2023-09-19T07:53:45;3.53;;;2.60;;
3911;SDS011;1971;51.778;10.330;2023-09-19T07:56:15;2.90;;;2.60;;
3911;SDS011;1971;51.778;10.330;2023-09-19T07:58:47;3.90;;;2.80;;
3911;SDS011;1971;51.778;10.330;2023-09-19T08:01:18;3.20;;;2.70;;
3911;SDS011;1971;51.778;10.330;2023-09-19T08:03:53;4.47;;;2.30;;
3911;SDS011;1971;51.778;10.330;2023-09-19T08:06:23;2.97;;;2.67;;
3911;SDS011;1971;51.778;10.330;2023-09-19T08:08:56;3.67;;;2.80;;
3911;SDS011;1971;51.778;10.330;2023-09-19T08:11:27;4.90;;;2.90;;
3911;SDS011;1971;51.778;10.330;2023-09-19T08:13:57;4.00;;;2.63;;
3911;SDS011;1971;51.778;10.330;2023-09-19T08:16:28;2.90;;;2.43;;
3911;SDS011;1971;51.778;10.330;2023-09-19T08:19:01;4.57;;;3.00;;
3911;SDS011;1971;51.778;10.330;2023-09-19T08:21:32;2.87;;;2.67;;
3911;SDS011;1971;51.778;10.330;2023-09-19T08:24:03;3.40;;;2.30;;
3911;SDS011;1971;51.778;10.330;2023-09-19T08:26:35;3.67;;;2.33;;
3911;SDS011;1971;51.778;10.330;2023-09-19T08:29:05;4.80;;;2.47;;
3911;SDS011;1971;51.778;10.330;2023-09-19T08:31:38;3.10;;;2.77;;
3911;SDS011;1971;51.778;10.330;2023-09-19T08:34:11;5.47;;;2.93;;
3911;SDS011;1971;51.778;10.330;2023-09-19T08:36:42;2.80;;;2.23;;
3911;SDS011;1971;51.778;10.330;2023-09-19T08:39:13;4.23;;;1.97;;
3911;SDS011;1971;51.778;10.330;2023-09-19T08:41:45;7.60;;;2.20;;
3911;SDS011;1971;51.778;10.330;2023-09-19T08:44:15;4.23;;;2.40;;
3911;SDS011;1971;51.778;10.330;2023-09-19T08:46:46;2.90;;;2.13;;
3911;SDS011;1971;51.778;10.330;2023-09-19T08:49:22;3.73;;;2.57;;
3911;SDS011;1971;51.778;10.330;2023-09-19T08:51:59;2.80;;;2.50;;
3911;SDS011;1971;51.778;10.330;2023-09-19T08:54:35;2.83;;;2.00;;
3911;SDS011;1971;51.778;10.330;2023-09-19T08:57:10;4.23;;;3.00;;
3911;SDS011;1971;51.778;10.330;2023-09-19T08:59:44;2.40;;;2.20;;
3911;SDS011;1971;51.778;10.330;2023-09-19T09:02:16;6.23;;;2.60;;
3911;SDS011;1971;51.778;10.330;2023-09-19T09:04:50;4.20;;;2.47;;
3911;SDS011;1971;51.778;10.330;2023-09-19T09:07:22;4.77;;;2.17;;
3911;SDS011;1971;51.778;10.330;2023-09-19T09:09:55;5.70;;;2.57;;
3911;SDS011;1971;51.778;10.330;2023-09-19T09:12:25;4.27;;;2.20;;
3911;SDS011;1971;51.778;10.330;2023-09-19T09:14:56;15.97;;;3.13;;
3911;SDS011;1971;51.778;10.330;2023-09-19T09:17:26;3.30;;;2.47;;
3911;SDS011;1971;51.778;10.330;2023-09-19T09:19:59;4.53;;;2.20;;
3911;SDS011;1971;51.778;10.330;2023-09-19T09:22:30;4.20;;;2.43;;
3911;SDS011;1971;51.778;10.330;2023-09-19T09:25:01;3.80;;;2.07;;
3911;SDS011;1971;51.778;10.330;2023-09-19T09:27:31;3.27;;;2.17;;
3911;SDS011;1971;51.778;10.330;2023-09-19T09:30:02;5.00;;;2.30;;
3911;SDS011;1971;51.778;10.330;2023-09-19T09:32:34;4.23;;;2.43;;
3911;SDS011;1971;51.778;10.330;2023-09-19T09:35:23;4.13;;;2.90;;
3911;SDS011;1971;51.778;10.330;2023-09-19T09:37:58;4.30;;;2.90;;
3911;SDS011;1971;51.778;10.330;2023-09-19T09:40:43;4.77;;;2.43;;
3911;SDS011;1971;51.778;10.330;2023-09-19T09:43:26;4.60;;;3.00;;
3911;SDS011;1971;51.778;10.330;2023-09-19T09:46:12;8.83;;;3.07;;
3911;SDS011;1971;51.778;10.330;2023-09-19T09:48:56;2.83;;;2.10;;
3911;SDS011;1971;51.778;10.330;2023-09-19T09:51:43;6.07;;;3.20;;
3911;SDS011;1971;51.778;10.330;2023-09-19T09:54:24;12.13;;;2.43;;
3911;SDS011;1971;51.778;10.330;2023-09-19T09:57:03;3.60;;;2.60;;
3911;SDS011;1971;51.778;10.330;2023-09-19T09:59:44;3.50;;;2.80;;
3911;SDS011;1971;51.778;10.330;2023-09-19T10:02:20;6.70;;;2.67;;
3911;SDS011;1971;51.778;10.330;2023-09-19T10:04:56;4.40;;;2.50;;
3911;SDS011;1971;51.778;10.330;2023-09-19T10:07:48;3.30;;;2.50;;
3911;SDS011;1971;51.778;10.330;2023-09-19T10:10:30;3.57;;;2.50;;
3911;SDS011;1971;51.778;10.330;2023-09-19T10:13:21;3.13;;;2.83;;
3911;SDS011;1971;51.778;10.330;2023-09-19T10:15:56;5.10;;;2.37;;
3911;SDS011;1971;51.778;10.330;2023-09-19T10:18:30;4.60;;;2.90;;
3911;SDS011;1971;51.778;10.330;2023-09-19T10:21:06;2.93;;;2.20;;
3911;SDS011;1971;51.778;10.330;2023-09-19T10:23:42;4.90;;;2.33;;
3911;SDS011;1971;51.778;10.330;2023-09-19T10:26:15;4.17;;;2.40;;
3911;SDS011;1971;51.778;10.330;2023-09-19T10:28:48;3.37;;;1.90;;
3911;SDS011;1971;51.778;10.330;2023-09-19T10:31:21;2.60;;;1.83;;
3911;SDS011;1971;51.778;10.330;2023-09-19T10:33:53;3.60;;;1.97;;
3911;SDS011;1971;51.778;10.330;2023-09-19T10:36:24;2.63;;;2.03;;
3911;SDS011;1971;51.778;10.330;2023-09-19T10:38:59;3.00;;;2.53;;
3911;SDS011;1971;51.778;10.330;2023-09-19T10:41:34;4.00;;;2.17;;
3911;SDS011;1971;51.778;10.330;2023-09-19T10:44:05;4.40;;;3.20;;
3911;SDS011;1971;51.778;10.330;2023-09-19T10:46:36;4.03;;;1.80;;
3911;SDS011;1971;51.778;10.330;2023-09-19T10:49:07;3.90;;;2.40;;
3911;SDS011;1971;51.778;10.330;2023-09-19T10:51:41;4.20;;;2.40;;
3911;SDS011;1971;51.778;10.330;2023-09-19T10:54:16;2.23;;;1.90;;
3911;SDS011;1971;51.778;10.330;2023-09-19T10:56:50;2.93;;;1.87;;
3911;SDS011;1971;51.778;10.330;2023-09-19T10:59:25;6.20;;;2.90;;
3911;SDS011;1971;51.778;10.330;2023-09-19T11:02:15;4.40;;;2.70;;
3911;SDS011;1971;51.778;10.330;2023-09-19T11:04:47;4.00;;;2.40;;
3911;SDS011;1971;51.778;10.330;2023-09-19T11:07:17;4.33;;;2.97;;
3911;SDS011;1971;51.778;10.330;2023-09-19T11:09:51;2.60;;;1.90;;
3911;SDS011;1971;51.778;10.330;2023-09-19T11:24:29;4.73;;;2.37;;
3911;SDS011;1971;51.778;10.330;2023-09-19T11:27:13;2.63;;;1.90;;
3911;SDS011;1971;51.778;10.330;2023-09-19T11:29:45;3.53;;;2.30;;
3911;SDS011;1971;51.778;10.330;2023-09-19T11:32:15;3.63;;;1.97;;
3911;SDS011;1971;51.778;10.330;2023-09-19T11:34:47;3.03;;;1.80;;
3911;SDS011;1971;51.778;10.330;2023-09-19T11:40:38;5.37;;;2.60;;
3911;SDS011;1971;51.778;10.330;2023-09-19T11:46:08;4.37;;;2.90;;
3911;SDS011;1971;51.778;10.330;2023-09-19T11:48:38;3.10;;;2.07;;
3911;SDS011;1971;51.778;10.330;2023-09-19T11:51:14;3.40;;;2.10;;
3911;SDS011;1971;51.778;10.330;2023-09-19T11:53:50;2.20;;;1.67;;
3911;SDS011;1971;51.778;10.330;2023-09-19T11:56:21;4.50;;;2.23;;
3911;SDS011;1971;51.778;10.330;2023-09-19T11:58:57;2.27;;;1.80;;
3911;SDS011;1971;51.778;10.330;2023-09-19T12:01:29;2.60;;;1.60;;
3911;SDS011;1971;51.778;10.330;2023-09-19T12:04:02;4.00;;;1.90;;
3911;SDS011;1971;51.778;10.330;2023-09-19T12:06:33;2.87;;;2.07;;
3911;SDS011;1971;51.778;10.330;2023-09-19T12:09:12;4.47;;;2.20;;
3911;SDS011;1971;51.778;10.330;2023-09-19T12:11:43;4.77;;;2.37;;
3911;SDS011;1971;51.778;10.330;2023-09-19T12:14:24;4.20;;;2.43;;
3911;SDS011;1971;51.778;10.330;2023-09-19T12:16:55;5.07;;;2.40;;
3911;SDS011;1971;51.778;10.330;2023-09-19T12:19:28;6.20;;;2.00;;
3911;SDS011;1971;51.778;10.330;2023-09-19T12:21:59;5.40;;;2.27;;
3911;SDS011;1971;51.778;10.330;2023-09-19T12:24:32;7.47;;;2.03;;
3911;SDS011;1971;51.778;10.330;2023-09-19T12:27:05;2.60;;;1.90;;
3911;SDS011;1971;51.778;10.330;2023-09-19T12:29:44;6.30;;;3.03;;
3911;SDS011;1971;51.778;10.330;2023-09-19T12:32:16;3.37;;;2.03;;
3911;SDS011;1971;51.778;10.330;2023-09-19T12:34:51;3.60;;;2.17;;
3911;SDS011;1971;51.778;10.330;2023-09-19T12:37:22;3.93;;;1.70;;
3911;SDS011;1971;51.778;10.330;2023-09-19T12:40:03;2.40;;;1.40;;
3911;SDS011;1971;51.778;10.330;2023-09-19T12:42:44;4.47;;;2.50;;
3911;SDS011;1971;51.778;10.330;2023-09-19T12:45:18;4.53;;;1.70;;
3911;SDS011;1971;51.778;10.330;2023-09-19T12:53:35;3.73;;;2.10;;
3911;SDS011;1971;51.778;10.330;2023-09-19T12:56:10;2.60;;;1.60;;
3911;SDS011;1971;51.778;10.330;2023-09-19T12:58:50;3.30;;;2.10;;
3911;SDS011;1971;51.778;10.330;2023-09-19T13:01:28;4.90;;;2.30;;
3911;SDS011;1971;51.778;10.330;2023-09-19T13:04:14;6.10;;;2.20;;
3911;SDS011;1971;51.778;10.330;2023-09-19T13:06:52;3.10;;;1.80;;
3911;SDS011;1971;51.778;10.330;2023-09-19T13:09:28;3.97;;;2.47;;
3911;SDS011;1971;51.778;10.330;2023-09-19T13:12:02;3.47;;;1.90;;
3911;SDS011;1971;51.778;10.330;2023-09-19T13:14:34;6.23;;;2.50;;
3911;SDS011;1971;51.778;10.330;2023-09-19T13:17:09;2.40;;;2.20;;
3911;SDS011;1971;51.778;10.330;2023-09-19T13:19:46;4.83;;;2.43;;
3911;SDS011;1971;51.778;10.330;2023-09-19T13:22:36;2.90;;;1.77;;
3911;SDS011;1971;51.778;10.330;2023-09-19T13:25:08;4.93;;;2.43;;
3911;SDS011;1971;51.778;10.330;2023-09-19T13:27:42;1.67;;;1.57;;
3911;SDS011;1971;51.778;10.330;2023-09-19T13:30:15;6.67;;;2.17;;
3911;SDS011;1971;51.778;10.330;2023-09-19T13:32:48;3.20;;;2.00;;
3911;SDS011;1971;51.778;10.330;2023-09-19T13:35:19;3.27;;;1.80;;
3911;SDS011;1971;51.778;10.330;2023-09-19T13:37:49;4.10;;;2.30;;
3911;SDS011;1971;51.778;10.330;2023-09-19T13:40:19;5.73;;;2.33;;
3911;SDS011;1971;51.778;10.330;2023-09-19T13:42:49;3.70;;;2.40;;
3911;SDS011;1971;51.778;10.330;2023-09-19T13:45:20;2.23;;;2.00;;
3911;SDS011;1971;51.778;10.330;2023-09-19T13:47:59;2.83;;;2.03;;
3911;SDS011;1971;51.778;10.330;2023-09-19T13:50:30;5.20;;;2.47;;
3911;SDS011;1971;51.778;10.330;2023-09-19T13:53:00;4.37;;;1.73;;
3911;SDS011;1971;51.778;10.330;2023-09-19T13:55:30;7.40;;;2.40;;
3911;SDS011;1971;51.778;10.330;2023-09-19T13:58:00;4.43;;;2.33;;
3911;SDS011;1971;51.778;10.330;2023-09-19T14:00:33;7.40;;;2.60;;
3911;SDS011;1971;51.778;10.330;2023-09-19T14:03:07;3.80;;;2.40;;
3911;SDS011;1971;51.778;10.330;2023-09-19T14:05:38;5.37;;;2.53;;
3911;SDS011;1971;51.778;10.330;2023-09-19T14:08:09;4.50;;;2.43;;
3911;SDS011;1971;51.778;10.330;2023-09-19T14:10:39;8.03;;;2.40;;
3911;SDS011;1971;51.778;10.330;2023-09-19T14:13:10;2.40;;;2.00;;
3911;SDS011;1971;51.778;10.330;2023-09-19T14:15:41;3.37;;;1.90;;
3911;SDS011;1971;51.778;10.330;2023-09-19T14:18:12;3.07;;;1.87;;
3911;SDS011;1971;51.778;10.330;2023-09-19T14:20:43;2.77;;;1.70;;
3911;SDS011;1971;51.778;10.330;2023-09-19T14:23:13;2.93;;;1.80;;
3911;SDS011;1971;51.778;10.330;2023-09-19T14:25:43;4.90;;;2.07;;
3911;SDS011;1971;51.778;10.330;2023-09-19T14:28:14;6.90;;;2.30;;
3911;SDS011;1971;51.778;10.330;2023-09-19T14:30:44;3.27;;;2.17;;
3911;SDS011;1971;51.778;10.330;2023-09-19T14:33:18;3.03;;;2.00;;
3911;SDS011;1971;51.778;10.330;2023-09-19T14:35:48;5.07;;;2.33;;
3911;SDS011;1971;51.778;10.330;2023-09-19T14:38:18;3.30;;;2.43;;
3911;SDS011;1971;51.778;10.330;2023-09-19T14:40:49;4.77;;;2.20;;
3911;SDS011;1971;51.778;10.330;2023-09-19T14:43:28;3.60;;;2.20;;
3911;SDS011;1971;51.778;10.330;2023-09-19T14:46:02;3.67;;;1.80;;
3911;SDS011;1971;51.778;10.330;2023-09-19T14:48:36;3.10;;;2.13;;
3911;SDS011;1971;51.778;10.330;2023-09-19T14:51:08;5.77;;;2.30;;
3911;SDS011;1971;51.778;10.330;2023-09-19T14:53:39;2.30;;;1.60;;
3911;SDS011;1971;51.778;10.330;2023-09-19T14:56:10;2.17;;;1.87;;
3911;SDS011;1971;51.778;10.330;2023-09-19T14:58:43;3.67;;;2.00;;
3911;SDS011;1971;51.778;10.330;2023-09-19T15:01:13;3.03;;;1.90;;
3911;SDS011;1971;51.778;10.330;2023-09-19T15:03:47;2.07;;;1.60;;
3911;SDS011;1971;51.778;10.330;2023-09-19T15:06:17;2.13;;;1.50;;
3911;SDS011;1971;51.778;10.330;2023-09-19T15:08:48;7.77;;;1.93;;
3911;SDS011;1971;51.778;10.330;2023-09-19T15:11:18;2.20;;;1.73;;
3911;SDS011;1971;51.778;10.330;2023-09-19T15:13:51;3.27;;;1.90;;
3911;SDS011;1971;51.778;10.330;2023-09-19T15:16:22;2.07;;;1.40;;
3911;SDS011;1971;51.778;10.330;2023-09-19T15:18:54;3.47;;;1.60;;
3911;SDS011;1971;51.778;10.330;2023-09-19T15:21:25;3.20;;;1.70;;
3911;SDS011;1971;51.778;10.330;2023-09-19T15:23:55;5.40;;;2.10;;
3911;SDS011;1971;51.778;10.330;2023-09-19T15:26:25;1.63;;;1.40;;
3911;SDS011;1971;51.778;10.330;2023-09-19T15:28:56;2.77;;;1.50;;
3911;SDS011;1971;51.778;10.330;2023-09-19T15:31:26;2.47;;;1.77;;
3911;SDS011;1971;51.778;10.330;2023-09-19T15:33:59;2.37;;;1.50;;
3911;SDS011;1971;51.778;10.330;2023-09-19T15:36:30;1.53;;;1.33;;
3911;SDS011;1971;51.778;10.330;2023-09-19T15:39:01;2.87;;;1.80;;
3911;SDS011;1971;51.778;10.330;2023-09-19T15:41:33;3.07;;;1.50;;
3911;SDS011;1971;51.778;10.330;2023-09-19T15:44:05;2.20;;;1.90;;
3911;SDS011;1971;51.778;10.330;2023-09-19T15:46:42;2.50;;;1.60;;
3911;SDS011;1971;51.778;10.330;2023-09-19T15:49:16;1.97;;;1.37;;
3911;SDS011;1971;51.778;10.330;2023-09-19T15:51:47;6.00;;;1.83;;
3911;SDS011;1971;51.778;10.330;2023-09-19T15:54:17;1.90;;;1.27;;
3911;SDS011;1971;51.778;10.330;2023-09-19T15:56:47;2.30;;;1.60;;
3911;SDS011;1971;51.778;10.330;2023-09-19T15:59:18;3.87;;;2.13;;
3911;SDS011;1971;51.778;10.330;2023-09-19T16:01:48;3.50;;;1.80;;
3911;SDS011;1971;51.778;10.330;2023-09-19T16:04:21;3.00;;;2.10;;
3911;SDS011;1971;51.778;10.330;2023-09-19T16:06:51;2.67;;;1.87;;
3911;SDS011;1971;51.778;10.330;2023-09-19T16:09:23;1.63;;;1.53;;
3911;SDS011;1971;51.778;10.330;2023-09-19T16:11:54;4.07;;;2.33;;
3911;SDS011;1971;51.778;10.330;2023-09-19T16:14:25;2.10;;;1.90;;
3911;SDS011;1971;51.778;10.330;2023-09-19T16:16:57;3.57;;;2.50;;
3911;SDS011;1971;51.778;10.330;2023-09-19T16:19:32;3.50;;;2.20;;
3911;SDS011;1971;51.778;10.330;2023-09-19T16:22:03;4.97;;;2.13;;
3911;SDS011;1971;51.778;10.330;2023-09-19T16:24:33;4.27;;;2.13;;
3911;SDS011;1971;51.778;10.330;2023-09-19T16:27:04;4.80;;;2.00;;
3911;SDS011;1971;51.778;10.330;2023-09-19T16:29:34;3.33;;;2.13;;
3911;SDS011;1971;51.778;10.330;2023-09-19T16:32:04;3.07;;;2.30;;
3911;SDS011;1971;51.778;10.330;2023-09-19T16:34:37;3.97;;;2.27;;
3911;SDS011;1971;51.778;10.330;2023-09-19T16:37:08;3.00;;;2.30;;
3911;SDS011;1971;51.778;10.330;2023-09-19T16:39:39;4.70;;;2.10;;
3911;SDS011;1971;51.778;10.330;2023-09-19T16:42:10;3.00;;;2.20;;
3911;SDS011;1971;51.778;10.330;2023-09-19T16:44:46;3.13;;;2.10;;
3911;SDS011;1971;51.778;10.330;2023-09-19T16:47:17;4.10;;;2.43;;
3911;SDS011;1971;51.778;10.330;2023-09-19T16:49:50;4.37;;;2.10;;
3911;SDS011;1971;51.778;10.330;2023-09-19T16:52:21;5.03;;;2.23;;
3911;SDS011;1971;51.778;10.330;2023-09-19T16:54:51;3.80;;;2.17;;
3911;SDS011;1971;51.778;10.330;2023-09-19T16:57:21;4.33;;;2.30;;
3911;SDS011;1971;51.778;10.330;2023-09-19T16:59:52;3.20;;;1.83;;
3911;SDS011;1971;51.778;10.330;2023-09-19T17:02:22;4.73;;;2.60;;
3911;SDS011;1971;51.778;10.330;2023-09-19T17:04:58;3.53;;;2.30;;
3911;SDS011;1971;51.778;10.330;2023-09-19T17:07:28;4.30;;;1.87;;
3911;SDS011;1971;51.778;10.330;2023-09-19T17:09:59;5.27;;;2.00;;
3911;SDS011;1971;51.778;10.330;2023-09-19T17:12:29;5.90;;;2.10;;
3911;SDS011;1971;51.778;10.330;2023-09-19T17:15:00;2.33;;;2.00;;
3911;SDS011;1971;51.778;10.330;2023-09-19T17:17:30;2.47;;;2.00;;
3911;SDS011;1971;51.778;10.330;2023-09-19T17:20:03;2.37;;;2.17;;
3911;SDS011;1971;51.778;10.330;2023-09-19T17:22:35;2.03;;;1.63;;
3911;SDS011;1971;51.778;10.330;2023-09-19T17:25:06;3.10;;;2.30;;
3911;SDS011;1971;51.778;10.330;2023-09-19T17:27:39;2.80;;;2.17;;
3911;SDS011;1971;51.778;10.330;2023-09-19T17:30:11;2.20;;;1.70;;
3911;SDS011;1971;51.778;10.330;2023-09-19T17:32:43;4.10;;;1.90;;
3911;SDS011;1971;51.778;10.330;2023-09-19T17:35:16;4.73;;;2.40;;
3911;SDS011;1971;51.778;10.330;2023-09-19T17:37:47;4.20;;;2.23;;
3911;SDS011;1971;51.778;10.330;2023-09-19T17:40:17;3.80;;;2.10;;
3911;SDS011;1971;51.778;10.330;2023-09-19T17:42:47;2.80;;;1.80;;
3911;SDS011;1971;51.778;10.330;2023-09-19T17:45:17;2.37;;;1.50;;
3911;SDS011;1971;51.778;10.330;2023-09-19T17:47:47;7.33;;;2.40;;
3911;SDS011;1971;51.778;10.330;2023-09-19T17:50:20;3.80;;;1.83;;
3911;SDS011;1971;51.778;10.330;2023-09-19T17:52:51;3.70;;;2.10;;
3911;SDS011;1971;51.778;10.330;2023-09-19T17:55:21;2.77;;;1.83;;
3911;SDS011;1971;51.778;10.330;2023-09-19T17:57:51;3.07;;;1.97;;
3911;SDS011;1971;51.778;10.330;2023-09-19T18:00:23;3.33;;;2.10;;
3911;SDS011;1971;51.778;10.330;2023-09-19T18:02:54;3.37;;;2.10;;
3911;SDS011;1971;51.778;10.330;2023-09-19T18:05:26;4.57;;;2.00;;
3911;SDS011;1971;51.778;10.330;2023-09-19T18:07:57;2.90;;;1.90;;
3911;SDS011;1971;51.778;10.330;2023-09-19T18:10:27;3.93;;;2.10;;
3911;SDS011;1971;51.778;10.330;2023-09-19T18:12:59;1.70;;;1.50;;
3911;SDS011;1971;51.778;10.330;2023-09-19T18:15:29;1.97;;;1.77;;
3911;SDS011;1971;51.778;10.330;2023-09-19T18:18:04;2.43;;;1.80;;
3911;SDS011;1971;51.778;10.330;2023-09-19T18:20:38;2.60;;;2.07;;
3911;SDS011;1971;51.778;10.330;2023-09-19T18:23:09;3.10;;;1.73;;
3911;SDS011;1971;51.778;10.330;2023-09-19T18:25:39;3.80;;;2.00;;
3911;SDS011;1971;51.778;10.330;2023-09-19T18:28:12;2.80;;;1.70;;
3911;SDS011;1971;51.778;10.330;2023-09-19T18:30:43;2.50;;;1.93;;
3911;SDS011;1971;51.778;10.330;2023-09-19T18:33:15;2.33;;;1.53;;
3911;SDS011;1971;51.778;10.330;2023-09-19T18:35:50;4.07;;;1.80;;
3911;SDS011;1971;51.778;10.330;2023-09-19T18:38:20;3.57;;;1.50;;
3911;SDS011;1971;51.778;10.330;2023-09-19T18:40:52;3.67;;;1.93;;
3911;SDS011;1971;51.778;10.330;2023-09-19T18:43:25;2.20;;;1.70;;
3911;SDS011;1971;51.778;10.330;2023-09-19T18:45:56;3.50;;;2.07;;
3911;SDS011;1971;51.778;10.330;2023-09-19T18:48:26;2.57;;;1.83;;
3911;SDS011;1971;51.778;10.330;2023-09-19T18:51:02;3.30;;;1.50;;
3911;SDS011;1971;51.778;10.330;2023-09-19T18:53:34;2.00;;;1.50;;
3911;SDS011;1971;51.778;10.330;2023-09-19T18:56:07;5.00;;;2.00;;
3911;SDS011;1971;51.778;10.330;2023-09-19T18:58:41;2.10;;;1.70;;
3911;SDS011;1971;51.778;10.330;2023-09-19T19:01:11;2.80;;;1.20;;
3911;SDS011;1971;51.778;10.330;2023-09-19T19:03:43;2.60;;;1.40;;
3911;SDS011;1971;51.778;10.330;2023-09-19T19:06:18;2.43;;;1.70;;
3911;SDS011;1971;51.778;10.330;2023-09-19T19:08:49;6.23;;;2.30;;
3911;SDS011;1971;51.778;10.330;2023-09-19T19:11:20;4.50;;;1.43;;
3911;SDS011;1971;51.778;10.330;2023-09-19T19:13:55;3.77;;;1.70;;
3911;SDS011;1971;51.778;10.330;2023-09-19T19:16:25;4.50;;;1.53;;
3911;SDS011;1971;51.778;10.330;2023-09-19T19:18:56;2.27;;;1.57;;
3911;SDS011;1971;51.778;10.330;2023-09-19T19:21:30;3.37;;;1.80;;
3911;SDS011;1971;51.778;10.330;2023-09-19T19:24:00;3.50;;;1.87;;
3911;SDS011;1971;51.778;10.330;2023-09-19T19:26:31;2.07;;;1.40;;
3911;SDS011;1971;51.778;10.330;2023-09-19T19:29:01;4.00;;;1.70;;
3911;SDS011;1971;51.778;10.330;2023-09-19T19:31:33;2.47;;;1.43;;
3911;SDS011;1971;51.778;10.330;2023-09-19T19:34:04;3.40;;;1.70;;
3911;SDS011;1971;51.778;10.330;2023-09-19T19:36:37;2.50;;;1.63;;
3911;SDS011;1971;51.778;10.330;2023-09-19T19:39:10;2.10;;;1.60;;
3911;SDS011;1971;51.778;10.330;2023-09-19T19:41:42;5.93;;;1.73;;
3911;SDS011;1971;51.778;10.330;2023-09-19T19:44:12;2.07;;;1.50;;
3911;SDS011;1971;51.778;10.330;2023-09-19T19:46:42;3.73;;;1.30;;
3911;SDS011;1971;51.778;10.330;2023-09-19T19:49:13;2.50;;;1.30;;
3911;SDS011;1971;51.778;10.330;2023-09-19T19:51:46;1.67;;;1.57;;
3911;SDS011;1971;51.778;10.330;2023-09-19T19:54:17;2.83;;;1.80;;
3911;SDS011;1971;51.778;10.330;2023-09-19T19:56:47;3.03;;;1.57;;
3911;SDS011;1971;51.778;10.330;2023-09-19T19:59:17;1.83;;;1.30;;
3911;SDS011;1971;51.778;10.330;2023-09-19T20:01:48;1.43;;;1.00;;
3911;SDS011;1971;51.778;10.330;2023-09-19T20:04:19;1.80;;;1.30;;
3911;SDS011;1971;51.778;10.330;2023-09-19T20:06:52;3.30;;;1.40;;
3911;SDS011;1971;51.778;10.330;2023-09-19T20:09:22;1.93;;;1.73;;
3911;SDS011;1971;51.778;10.330;2023-09-19T20:11:52;2.37;;;1.30;;
3911;SDS011;1971;51.778;10.330;2023-09-19T20:14:23;1.87;;;1.20;;
3911;SDS011;1971;51.778;10.330;2023-09-19T20:16:53;2.60;;;1.40;;
3911;SDS011;1971;51.778;10.330;2023-09-19T20:19:27;3.37;;;1.17;;
3911;SDS011;1971;51.778;10.330;2023-09-19T20:22:03;4.30;;;1.50;;
3911;SDS011;1971;51.778;10.330;2023-09-19T20:24:35;1.77;;;1.47;;
3911;SDS011;1971;51.778;10.330;2023-09-19T20:27:05;1.50;;;1.30;;
3911;SDS011;1971;51.778;10.330;2023-09-19T20:29:36;2.40;;;1.17;;
3911;SDS011;1971;51.778;10.330;2023-09-19T20:32:06;2.40;;;1.30;;
3911;SDS011;1971;51.778;10.330;2023-09-19T20:34:38;2.17;;;1.30;;
3911;SDS011;1971;51.778;10.330;2023-09-19T20:37:10;2.40;;;1.40;;
3911;SDS011;1971;51.778;10.330;2023-09-19T20:39:41;2.97;;;1.30;;
3911;SDS011;1971;51.778;10.330;2023-09-19T20:42:12;2.20;;;1.23;;
3911;SDS011;1971;51.778;10.330;2023-09-19T20:44:42;1.97;;;1.13;;
3911;SDS011;1971;51.778;10.330;2023-09-19T20:47:13;1.90;;;1.30;;
3911;SDS011;1971;51.778;10.330;2023-09-19T20:49:44;3.37;;;1.60;;
3911;SDS011;1971;51.778;10.330;2023-09-19T20:52:17;3.57;;;1.50;;
3911;SDS011;1971;51.778;10.330;2023-09-19T20:54:48;2.30;;;1.40;;
3911;SDS011;1971;51.778;10.330;2023-09-19T20:57:18;1.43;;;1.30;;
3911;SDS011;1971;51.778;10.330;2023-09-19T20:59:48;4.40;;;1.40;;
3911;SDS011;1971;51.778;10.330;2023-09-19T21:02:19;1.30;;;1.20;;
3911;SDS011;1971;51.778;10.330;2023-09-19T21:04:49;1.40;;;1.10;;
3911;SDS011;1971;51.778;10.330;2023-09-19T21:07:22;4.03;;;1.30;;
3911;SDS011;1971;51.778;10.330;2023-09-19T21:09:56;4.60;;;1.10;;
3911;SDS011;1971;51.778;10.330;2023-09-19T21:12:27;2.47;;;1.10;;
3911;SDS011;1971;51.778;10.330;2023-09-19T21:14:57;1.63;;;1.30;;
3911;SDS011;1971;51.778;10.330;2023-09-19T21:17:30;2.23;;;1.30;;
3911;SDS011;1971;51.778;10.330;2023-09-19T21:20:00;1.40;;;1.13;;
3911;SDS011;1971;51.778;10.330;2023-09-19T21:22:33;2.87;;;1.50;;
3911;SDS011;1971;51.778;10.330;2023-09-19T21:25:04;4.00;;;1.40;;
3911;SDS011;1971;51.778;10.330;2023-09-19T21:27:36;2.33;;;1.33;;
3911;SDS011;1971;51.778;10.330;2023-09-19T21:30:07;1.20;;;1.10;;
3911;SDS011;1971;51.778;10.330;2023-09-19T21:32:37;1.73;;;1.37;;
3911;SDS011;1971;51.778;10.330;2023-09-19T21:35:08;1.87;;;1.10;;
3911;SDS011;1971;51.778;10.330;2023-09-19T21:37:40;4.17;;;1.30;;
3911;SDS011;1971;51.778;10.330;2023-09-19T21:40:11;2.20;;;1.30;;
3911;SDS011;1971;51.778;10.330;2023-09-19T21:42:41;2.03;;;1.50;;
3911;SDS011;1971;51.778;10.330;2023-09-19T21:45:13;1.47;;;1.20;;
3911;SDS011;1971;51.778;10.330;2023-09-19T21:47:43;1.97;;;1.13;;
3911;SDS011;1971;51.778;10.330;2023-09-19T21:50:13;1.90;;;1.27;;
3911;SDS011;1971;51.778;10.330;2023-09-19T21:52:47;3.47;;;1.30;;
3911;SDS011;1971;51.778;10.330;2023-09-19T21:55:18;4.00;;;1.47;;
3911;SDS011;1971;51.778;10.330;2023-09-19T21:57:48;2.80;;;1.20;;
3911;SDS011;1971;51.778;10.330;2023-09-19T22:00:19;3.63;;;1.90;;
3911;SDS011;1971;51.778;10.330;2023-09-19T22:03:01;3.57;;;1.37;;
3911;SDS011;1971;51.778;10.330;2023-09-19T22:05:33;1.50;;;1.20;;
3911;SDS011;1971;51.778;10.330;2023-09-19T22:08:07;2.17;;;1.50;;
3911;SDS011;1971;51.778;10.330;2023-09-19T22:10:41;5.20;;;1.20;;
3911;SDS011;1971;51.778;10.330;2023-09-19T22:13:13;1.50;;;1.07;;
3911;SDS011;1971;51.778;10.330;2023-09-19T22:15:47;2.20;;;1.60;;
3911;SDS011;1971;51.778;10.330;2023-09-19T22:18:17;1.40;;;1.20;;
3911;SDS011;1971;51.778;10.330;2023-09-19T22:20:48;1.50;;;1.40;;
3911;SDS011;1971;51.778;10.330;2023-09-19T22:23:22;1.20;;;1.00;;
3911;SDS011;1971;51.778;10.330;2023-09-19T22:25:59;1.50;;;1.20;;
3911;SDS011;1971;51.778;10.330;2023-09-19T22:28:31;1.43;;;1.20;;
3911;SDS011;1971;51.778;10.330;2023-09-19T22:31:03;3.40;;;1.50;;
3911;SDS011;1971;51.778;10.330;2023-09-19T22:33:36;2.13;;;1.10;;
3911;SDS011;1971;51.778;10.330;2023-09-19T22:36:07;2.97;;;1.73;;
3911;SDS011;1971;51.778;10.330;2023-09-19T22:38:41;1.87;;;1.40;;
3911;SDS011;1971;51.778;10.330;2023-09-19T22:41:12;2.50;;;1.43;;
3911;SDS011;1971;51.778;10.330;2023-09-19T22:43:43;1.90;;;1.13;;
3911;SDS011;1971;51.778;10.330;2023-09-19T22:46:17;3.17;;;1.30;;
3911;SDS011;1971;51.778;10.330;2023-09-19T22:48:48;2.70;;;1.50;;
3911;SDS011;1971;51.778;10.330;2023-09-19T22:51:19;2.47;;;1.40;;
3911;SDS011;1971;51.778;10.330;2023-09-19T22:54:06;1.93;;;1.20;;